Time;durP1;ratioP1;P1;durP2;ratioP2;P2;SDS_P1;SDS_P2;PMS_P1;PMS_P2;Temp;Humidity;BMP_temperature;BMP_pressure;BME280_temperature;BME280_humidity;BME280_pressure;Samples;Min_cycle;Max_cycle;Signal;HPM_P1;HPM_P2
2021/09/25 00:01:35;;;;;;;7.32;6.63;;;15.70;99.90;;;;;;6059199;23;20710;-76
2021/09/25 00:04:02;;;;;;;6.22;5.63;;;15.70;99.90;;;;;;6059328;23;20218;-76
2021/09/25 00:06:30;;;;;;;6.30;5.80;;;15.70;99.90;;;;;;6058214;23;20281;-76
2021/09/25 00:08:57;;;;;;;5.97;5.47;;;15.70;99.90;;;;;;6060354;23;20265;-78
2021/09/25 00:11:26;;;;;;;6.93;6.22;;;15.70;99.90;;;;;;6054805;23;20202;-77
2021/09/25 00:13:53;;;;;;;6.50;5.90;;;15.60;99.90;;;;;;6059287;23;20244;-76
2021/09/25 00:16:25;;;;;;;7.30;6.13;;;15.60;99.90;;;;;;6058591;23;20210;-78
2021/09/25 00:18:52;;;;;;;6.20;5.60;;;15.60;99.90;;;;;;6058144;23;20202;-76
2021/09/25 00:21:20;;;;;;;6.72;6.13;;;15.60;99.90;;;;;;6058719;23;20218;-77
2021/09/25 00:23:47;;;;;;;6.15;5.65;;;15.50;99.90;;;;;;6059988;23;20218;-77
2021/09/25 00:26:14;;;;;;;6.03;5.53;;;15.60;99.90;;;;;;6058213;23;20202;-76
2021/09/25 00:28:41;;;;;;;6.57;5.97;;;15.60;99.90;;;;;;6059307;23;20730;-77
2021/09/25 00:31:08;;;;;;;6.10;5.50;;;15.60;99.90;;;;;;6058662;23;20198;-77
2021/09/25 00:33:36;;;;;;;6.30;5.80;;;15.50;99.90;;;;;;6059187;23;20233;-76
2021/09/25 00:36:04;;;;;;;6.47;5.78;;;15.50;99.90;;;;;;6059162;23;20198;-76
2021/09/25 00:38:31;;;;;;;6.85;6.25;;;15.50;99.90;;;;;;6058838;23;20535;-76
2021/09/25 00:40:59;;;;;;;6.80;6.20;;;15.40;99.90;;;;;;6057531;23;20218;-76
2021/09/25 00:43:27;;;;;;;6.22;5.70;;;15.40;99.90;;;;;;6059434;23;20762;-77
2021/09/25 00:45:54;;;;;;;5.88;5.38;;;15.40;99.90;;;;;;6045040;23;20213;-77
2021/09/25 00:48:21;;;;;;;6.88;6.28;;;15.40;99.90;;;;;;6058659;23;20663;-76
2021/09/25 00:50:49;;;;;;;5.75;5.25;;;15.30;99.90;;;;;;6058303;23;20215;-77
2021/09/25 00:53:16;;;;;;;6.30;5.80;;;15.30;99.90;;;;;;6057118;23;20269;-77
2021/09/25 00:55:43;;;;;;;6.57;5.97;;;15.30;99.90;;;;;;6051624;23;20277;-71
2021/09/25 00:58:11;;;;;;;7.43;6.72;;;15.20;99.90;;;;;;6057360;23;20202;-71
2021/09/25 01:00:38;;;;;;;6.88;6.28;;;15.20;99.90;;;;;;6059112;23;20214;-71
2021/09/25 01:03:05;;;;;;;6.55;5.97;;;15.20;99.90;;;;;;6060183;23;20213;-72
2021/09/25 01:05:33;;;;;;;5.97;5.47;;;15.20;99.90;;;;;;6059132;23;20217;-72
2021/09/25 01:08:01;;;;;;;6.03;5.53;;;15.10;99.90;;;;;;6059789;23;20493;-71
2021/09/25 01:10:29;;;;;;;5.72;5.13;;;15.10;99.90;;;;;;6059430;23;20212;-71
2021/09/25 01:12:56;;;;;;;5.80;5.30;;;15.10;99.90;;;;;;6060058;23;20708;-71
2021/09/25 01:15:23;;;;;;;6.05;5.55;;;15.10;99.90;;;;;;6058260;23;20217;-71
2021/09/25 01:17:50;;;;;;;5.75;5.25;;;15.10;99.90;;;;;;6058442;23;20213;-72
2021/09/25 01:20:17;;;;;;;6.18;5.57;;;15.10;99.90;;;;;;6060149;23;20694;-71
2021/09/25 01:22:46;;;;;;;6.03;5.53;;;15.00;99.90;;;;;;6059245;23;20540;-71
2021/09/25 01:25:14;;;;;;;5.63;5.13;;;15.00;99.90;;;;;;6059891;23;20213;-71
2021/09/25 01:27:41;;;;;;;5.47;4.97;;;15.00;99.90;;;;;;6058312;23;20212;-71
2021/09/25 01:30:12;;;;;;;5.47;4.97;;;14.90;99.90;;;;;;6060604;23;20202;-71
2021/09/25 01:32:39;;;;;;;6.22;5.72;;;15.00;99.90;;;;;;6059773;23;20617;-71
2021/09/25 01:35:09;;;;;;;5.72;5.22;;;14.90;99.90;;;;;;6059516;23;20241;-71
2021/09/25 01:37:36;;;;;;;5.00;4.60;;;14.90;99.90;;;;;;6059215;23;20210;-71
2021/09/25 01:40:06;;;;;;;6.13;5.63;;;14.90;99.90;;;;;;6057334;23;20202;-71
2021/09/25 01:42:33;;;;;;;6.03;5.53;;;14.90;99.90;;;;;;6059335;23;20218;-71
2021/09/25 01:45:01;;;;;;;5.00;4.60;;;14.90;99.90;;;;;;6059189;23;20206;-71
2021/09/25 01:47:28;;;;;;;4.85;4.50;;;14.90;99.90;;;;;;6060294;23;20205;-71
2021/09/25 01:49:55;;;;;;;5.10;4.70;;;14.90;99.90;;;;;;6058720;23;21199;-72
2021/09/25 01:52:22;;;;;;;4.75;4.35;;;14.90;99.90;;;;;;6058697;23;20556;-71
2021/09/25 01:54:49;;;;;;;5.53;5.03;;;14.80;99.90;;;;;;6060344;23;20212;-71
2021/09/25 01:57:18;;;;;;;5.10;4.68;;;14.80;99.90;;;;;;6059326;23;20536;-71
2021/09/25 01:59:45;;;;;;;4.72;4.32;;;14.80;99.90;;;;;;6060059;23;20685;-71
2021/09/25 02:02:13;;;;;;;4.45;4.15;;;14.80;99.90;;;;;;6058376;23;20213;-71
2021/09/25 02:04:46;;;;;;;5.05;4.65;;;14.70;99.90;;;;;;6059149;23;20265;-72
2021/09/25 02:07:15;;;;;;;4.82;4.43;;;14.70;99.90;;;;;;6058582;23;20730;-71
2021/09/25 02:09:42;;;;;;;4.35;3.95;;;14.70;99.90;;;;;;6060257;23;20213;-71
2021/09/25 02:12:09;;;;;;;4.32;4.03;;;14.70;99.90;;;;;;6058827;23;20206;-71
2021/09/25 02:14:39;;;;;;;4.15;3.78;;;14.70;99.90;;;;;;6059293;23;20210;-71
2021/09/25 02:17:06;;;;;;;4.43;4.13;;;14.70;99.90;;;;;;6058080;23;20203;-71
2021/09/25 02:19:33;;;;;;;4.47;4.07;;;14.70;99.90;;;;;;6058696;23;20210;-71
2021/09/25 02:22:01;;;;;;;4.55;4.20;;;14.70;99.90;;;;;;6058984;23;20709;-71
2021/09/25 02:24:28;;;;;;;4.35;4.05;;;14.70;99.90;;;;;;6059890;23;20210;-71
2021/09/25 02:26:56;;;;;;;5.18;4.78;;;14.70;99.90;;;;;;6057860;23;20651;-72
2021/09/25 02:29:23;;;;;;;5.07;4.68;;;14.60;99.90;;;;;;6058841;23;20297;-71
2021/09/25 02:31:52;;;;;;;5.05;4.65;;;14.60;99.90;;;;;;6059198;23;20535;-72
2021/09/25 02:34:19;;;;;;;3.95;3.60;;;14.50;99.90;;;;;;6058120;23;20224;-72
2021/09/25 02:36:46;;;;;;;4.72;4.38;;;14.50;99.90;;;;;;6058049;23;20210;-71
2021/09/25 02:39:13;;;;;;;4.80;4.40;;;14.50;99.90;;;;;;6059337;23;20675;-71
2021/09/25 02:41:40;;;;;;;4.45;4.13;;;14.50;99.90;;;;;;6059262;23;20593;-71
2021/09/25 02:44:08;;;;;;;4.22;3.90;;;14.40;99.90;;;;;;6058065;23;20224;-71
2021/09/25 02:46:35;;;;;;;4.82;4.43;;;14.40;99.90;;;;;;6058299;23;20205;-71
2021/09/25 02:49:03;;;;;;;5.28;4.78;;;14.40;99.90;;;;;;6059671;23;20206;-71
2021/09/25 02:51:30;;;;;;;4.93;4.53;;;14.50;99.90;;;;;;6060735;23;20210;-71
2021/09/25 02:53:57;;;;;;;5.70;5.20;;;14.50;99.90;;;;;;6061986;23;20209;-71
2021/09/25 02:56:25;;;;;;;5.00;4.60;;;14.50;99.90;;;;;;6060572;23;20210;-70
2021/09/25 02:58:52;;;;;;;4.70;4.30;;;14.50;99.90;;;;;;6061484;23;20674;-71
2021/09/25 03:01:19;;;;;;;4.80;4.40;;;14.50;99.90;;;;;;6060745;23;20533;-71
2021/09/25 03:03:46;;;;;;;4.43;4.07;;;14.50;99.90;;;;;;6059961;23;20217;-71
2021/09/25 03:06:14;;;;;;;5.15;4.75;;;14.50;99.90;;;;;;6059722;23;20245;-71
2021/09/25 03:08:42;;;;;;;4.85;4.45;;;14.50;99.90;;;;;;6061191;23;20230;-71
2021/09/25 03:11:09;;;;;;;4.47;4.10;;;14.50;99.90;;;;;;6059101;23;20206;-71
2021/09/25 03:13:36;;;;;;;4.80;4.40;;;14.50;99.90;;;;;;6060485;23;20217;-71
2021/09/25 03:16:03;;;;;;;4.47;4.13;;;14.40;99.90;;;;;;6060297;23;20214;-71
2021/09/25 03:18:30;;;;;;;4.70;4.30;;;14.40;99.90;;;;;;6060931;23;20214;-71
2021/09/25 03:20:58;;;;;;;4.40;4.10;;;14.40;99.90;;;;;;6061276;23;20202;-71
2021/09/25 03:23:26;;;;;;;4.57;4.18;;;14.40;99.90;;;;;;6060498;23;20737;-71
2021/09/25 03:25:54;;;;;;;4.60;4.20;;;14.40;99.90;;;;;;6059770;23;20213;-71
2021/09/25 03:28:21;;;;;;;5.15;4.75;;;14.40;99.90;;;;;;6060766;23;20519;-71
2021/09/25 03:30:48;;;;;;;5.25;4.80;;;14.30;99.90;;;;;;6059723;23;20216;-71
2021/09/25 03:33:15;;;;;;;5.38;4.97;;;14.30;99.90;;;;;;6060828;23;20401;-71
2021/09/25 03:35:46;;;;;;;4.55;4.18;;;14.30;99.90;;;;;;6058125;23;20210;-71
2021/09/25 03:38:17;;;;;;;5.55;5.07;;;14.30;99.90;;;;;;6060318;23;20213;-71
2021/09/25 03:40:45;;;;;;;5.05;4.55;;;14.30;99.90;;;;;;6060060;23;20691;-72
2021/09/25 03:43:13;;;;;;;4.43;4.13;;;14.30;99.90;;;;;;6061077;23;20237;-71
2021/09/25 03:45:40;;;;;;;4.15;3.75;;;14.40;99.90;;;;;;6059591;23;20562;-71
2021/09/25 03:48:07;;;;;;;4.43;4.07;;;14.40;99.90;;;;;;6060523;23;20202;-71
2021/09/25 03:50:35;;;;;;;4.30;3.90;;;14.50;99.90;;;;;;6060802;23;20265;-71
2021/09/25 03:53:02;;;;;;;4.70;4.35;;;14.50;99.90;;;;;;6060249;23;20210;-71
2021/09/25 03:55:30;;;;;;;4.18;3.80;;;14.50;99.90;;;;;;6060339;23;20502;-71
2021/09/25 03:57:59;;;;;;;4.22;3.83;;;14.50;99.90;;;;;;6060094;23;20210;-71
2021/09/25 04:00:26;;;;;;;4.32;4.03;;;14.50;99.90;;;;;;6058654;23;20202;-71
2021/09/25 04:02:54;;;;;;;4.10;3.80;;;14.50;99.90;;;;;;6060682;23;20677;-71
2021/09/25 04:05:22;;;;;;;4.43;4.07;;;14.50;99.90;;;;;;6059580;23;20265;-72
2021/09/25 04:07:50;;;;;;;4.10;3.80;;;14.50;99.90;;;;;;6059836;23;20345;-71
2021/09/25 04:10:18;;;;;;;4.10;3.80;;;14.50;99.90;;;;;;6060491;23;20281;-71
2021/09/25 04:12:45;;;;;;;4.50;4.20;;;14.50;99.90;;;;;;6060963;23;20217;-71
2021/09/25 04:15:13;;;;;;;4.30;4.00;;;14.50;99.90;;;;;;6059367;23;20210;-71
2021/09/25 04:17:41;;;;;;;4.82;4.53;;;14.50;99.90;;;;;;6060998;23;20754;-71
2021/09/25 04:20:09;;;;;;;4.82;4.35;;;14.50;99.90;;;;;;6059817;23;20309;-71
2021/09/25 04:22:36;;;;;;;4.20;3.90;;;14.50;99.90;;;;;;6060905;23;20309;-70
2021/09/25 04:25:04;;;;;;;4.72;4.00;;;14.40;99.90;;;;;;6058644;23;20210;-71
2021/09/25 04:27:32;;;;;;;4.15;3.85;;;14.60;99.90;;;;;;6059060;23;20212;-71
2021/09/25 04:30:00;;;;;;;4.85;4.45;;;14.80;99.90;;;;;;6059951;23;20257;-71
2021/09/25 04:32:29;;;;;;;4.32;4.03;;;15.20;99.90;;;;;;6061124;23;20202;-70
2021/09/25 04:34:56;;;;;;;4.35;3.97;;;15.40;99.90;;;;;;6059830;23;20214;-71
2021/09/25 04:37:23;;;;;;;4.05;3.75;;;15.50;99.90;;;;;;6059291;23;20588;-71
2021/09/25 04:39:51;;;;;;;4.68;4.28;;;15.60;99.90;;;;;;6060768;23;20209;-70
2021/09/25 04:42:18;;;;;;;4.22;3.90;;;15.50;99.90;;;;;;6057537;23;20210;-71
2021/09/25 04:44:45;;;;;;;4.22;3.88;;;15.60;99.90;;;;;;6059791;23;20214;-71
2021/09/25 04:47:12;;;;;;;4.65;3.78;;;15.60;99.90;;;;;;6059052;23;20206;-71
2021/09/25 04:49:40;;;;;;;4.88;3.92;;;15.80;99.90;;;;;;6061063;23;20675;-70
2021/09/25 04:52:08;;;;;;;4.80;4.40;;;15.90;99.90;;;;;;6061888;23;20218;-71
2021/09/25 04:54:35;;;;;;;4.57;4.18;;;15.80;99.90;;;;;;6060364;23;20298;-71
2021/09/25 04:57:02;;;;;;;4.35;4.03;;;15.80;99.90;;;;;;6060144;23;20214;-71
2021/09/25 04:59:29;;;;;;;4.53;4.13;;;15.70;99.90;;;;;;6060774;23;20206;-71
2021/09/25 05:01:56;;;;;;;3.83;3.53;;;15.50;99.90;;;;;;6061755;23;20312;-72
2021/09/25 05:04:23;;;;;;;4.72;4.22;;;15.30;99.90;;;;;;6057019;23;20778;-71
2021/09/25 05:06:51;;;;;;;4.05;3.67;;;15.20;99.90;;;;;;6057775;23;20587;-71
2021/09/25 05:09:22;;;;;;;4.15;3.85;;;15.10;99.90;;;;;;6061054;23;20594;-71
2021/09/25 05:11:49;;;;;;;4.10;3.80;;;15.00;99.90;;;;;;6059736;23;20933;-71
2021/09/25 05:14:16;;;;;;;3.90;3.60;;;14.90;99.90;;;;;;6060684;23;20270;-71
2021/09/25 05:16:43;;;;;;;3.50;3.20;;;14.80;99.90;;;;;;6060418;23;20602;-71
2021/09/25 05:19:10;;;;;;;3.92;3.63;;;14.80;99.90;;;;;;6061408;23;20206;-71
2021/09/25 05:21:37;;;;;;;4.38;3.95;;;14.80;99.90;;;;;;6059251;23;20206;-71
2021/09/25 05:24:07;;;;;;;3.72;3.42;;;14.80;99.90;;;;;;6059716;23;20762;-71
2021/09/25 05:26:35;;;;;;;3.85;3.55;;;14.80;99.90;;;;;;6059601;23;20214;-71
2021/09/25 05:29:02;;;;;;;3.70;3.40;;;14.80;99.90;;;;;;6060122;23;20210;-71
2021/09/25 05:31:30;;;;;;;3.25;3.05;;;14.80;99.90;;;;;;6059766;23;20266;-72
2021/09/25 05:33:57;;;;;;;4.75;4.00;;;14.90;99.90;;;;;;6060730;23;20241;-71
2021/09/25 05:36:24;;;;;;;4.43;3.90;;;14.90;99.90;;;;;;6046872;23;20206;-71
2021/09/25 05:38:51;;;;;;;4.10;3.80;;;14.80;99.90;;;;;;6057455;23;20273;-71
2021/09/25 05:41:20;;;;;;;3.92;3.63;;;14.70;99.90;;;;;;6057907;23;20206;-71
2021/09/25 05:43:50;;;;;;;4.00;3.70;;;14.70;99.90;;;;;;6058673;23;20214;-71
2021/09/25 05:46:18;;;;;;;4.75;4.20;;;14.70;99.90;;;;;;6058684;23;20202;-71
2021/09/25 05:48:45;;;;;;;4.32;4.03;;;14.70;99.90;;;;;;6058849;23;20597;-71
2021/09/25 05:51:12;;;;;;;5.47;4.97;;;14.70;99.90;;;;;;6059144;23;20703;-71
2021/09/25 05:53:39;;;;;;;4.28;3.97;;;14.70;99.90;;;;;;6058350;23;20265;-71
2021/09/25 05:56:06;;;;;;;4.20;3.90;;;14.60;99.90;;;;;;6057818;23;20671;-71
2021/09/25 05:58:35;;;;;;;4.55;4.15;;;14.60;99.90;;;;;;6058555;23;20210;-71
2021/09/25 06:01:02;;;;;;;4.50;4.10;;;14.50;99.90;;;;;;6057667;23;20202;-71
2021/09/25 06:03:29;;;;;;;3.95;3.67;;;14.60;99.90;;;;;;6058440;23;20285;-71
2021/09/25 06:05:56;;;;;;;4.13;3.83;;;14.50;99.90;;;;;;6058282;23;20206;-71
2021/09/25 06:08:23;;;;;;;4.45;4.15;;;14.60;99.90;;;;;;6058876;23;20548;-71
2021/09/25 06:10:50;;;;;;;4.80;4.30;;;14.70;99.90;;;;;;6057523;23;20206;-71
2021/09/25 06:13:17;;;;;;;4.78;4.38;;;14.70;99.90;;;;;;6057673;23;20615;-71
2021/09/25 06:15:46;;;;;;;4.30;4.00;;;14.80;99.90;;;;;;6057147;23;20209;-71
2021/09/25 06:18:13;;;;;;;4.15;3.85;;;14.80;99.90;;;;;;6057760;23;20278;-72
2021/09/25 06:20:40;;;;;;;4.50;4.10;;;14.80;99.90;;;;;;6058473;23;20281;-71
2021/09/25 06:23:08;;;;;;;5.30;4.55;;;14.80;99.90;;;;;;6056991;23;20210;-71
2021/09/25 06:25:35;;;;;;;4.55;4.15;;;14.80;99.90;;;;;;6058291;23;20217;-70
2021/09/25 06:28:04;;;;;;;3.80;3.50;;;14.80;99.90;;;;;;6057951;23;20273;-71
2021/09/25 06:30:31;;;;;;;3.90;3.60;;;14.80;99.90;;;;;;6057687;23;20210;-71
2021/09/25 06:32:59;;;;;;;4.13;3.83;;;14.80;99.90;;;;;;6058245;23;20206;-71
2021/09/25 06:35:26;;;;;;;4.07;3.78;;;14.90;99.90;;;;;;6057864;23;20216;-71
2021/09/25 06:37:53;;;;;;;4.65;4.25;;;14.90;99.90;;;;;;6057067;23;20261;-71
2021/09/25 06:40:20;;;;;;;6.03;4.30;;;15.00;99.90;;;;;;6058053;23;20213;-71
2021/09/25 06:42:47;;;;;;;4.18;3.85;;;15.10;99.90;;;;;;6057274;23;20217;-71
2021/09/25 06:45:14;;;;;;;4.22;3.90;;;15.20;99.90;;;;;;6058334;23;20221;-71
2021/09/25 06:47:41;;;;;;;4.10;3.70;;;15.40;99.90;;;;;;6056878;23;20209;-71
2021/09/25 06:50:11;;;;;;;4.70;4.28;;;15.50;99.90;;;;;;6058258;23;20206;-71
2021/09/25 06:52:38;;;;;;;4.25;3.95;;;15.70;99.90;;;;;;6057639;23;20715;-71
2021/09/25 06:55:07;;;;;;;4.20;3.85;;;15.70;99.90;;;;;;6019879;23;20205;-77
2021/09/25 06:57:34;;;;;;;5.30;4.80;;;15.70;99.90;;;;;;6052836;23;20206;-77
2021/09/25 07:00:01;;;;;;;4.43;4.00;;;15.80;99.90;;;;;;6056001;23;20282;-78
2021/09/25 07:02:28;;;;;;;4.60;4.20;;;15.80;99.90;;;;;;6055090;23;20206;-77
2021/09/25 07:04:55;;;;;;;4.25;3.95;;;15.90;99.90;;;;;;6056310;23;20269;-77
2021/09/25 07:07:24;;;;;;;4.72;4.32;;;15.90;99.90;;;;;;6054488;23;20269;-77
2021/09/25 07:09:51;;;;;;;4.55;4.15;;;16.00;99.90;;;;;;6055741;23;20206;-77
2021/09/25 07:12:18;;;;;;;4.70;4.30;;;16.10;99.90;;;;;;6054921;23;20578;-77
2021/09/25 07:14:45;;;;;;;4.35;3.95;;;16.10;99.90;;;;;;6056000;23;20257;-77
2021/09/25 07:17:12;;;;;;;4.40;4.00;;;16.20;99.90;;;;;;6054729;23;20706;-77
2021/09/25 07:19:40;;;;;;;4.95;4.55;;;16.40;99.90;;;;;;6056801;23;20209;-77
2021/09/25 07:22:08;;;;;;;5.10;4.70;;;16.60;99.90;;;;;;6054440;23;20281;-77
2021/09/25 07:24:37;;;;;;;5.20;4.70;;;16.80;99.90;;;;;;6055996;23;20289;-77
2021/09/25 07:27:04;;;;;;;4.72;4.30;;;17.00;99.90;;;;;;6054486;23;20206;-77
2021/09/25 07:29:31;;;;;;;5.47;4.63;;;17.30;99.90;;;;;;6055338;23;20265;-77
2021/09/25 07:31:58;;;;;;;4.60;4.20;;;17.70;99.90;;;;;;6055619;23;20202;-77
2021/09/25 07:34:26;;;;;;;4.25;3.95;;;17.90;99.90;;;;;;6055293;23;20210;-77
2021/09/25 07:36:54;;;;;;;4.25;3.95;;;18.00;99.90;;;;;;6056113;23;20202;-77
2021/09/25 07:39:21;;;;;;;4.78;4.25;;;18.10;99.90;;;;;;6057705;23;20820;-77
2021/09/25 07:41:49;;;;;;;4.18;3.88;;;18.50;99.90;;;;;;6055744;23;20218;-77
2021/09/25 07:44:16;;;;;;;4.82;3.95;;;19.10;99.90;;;;;;6056976;23;20218;-77
2021/09/25 07:46:43;;;;;;;4.25;3.70;;;19.60;99.90;;;;;;6056938;23;20242;-77
2021/09/25 07:49:10;;;;;;;4.05;3.67;;;19.90;99.90;;;;;;6057347;23;20567;-77
2021/09/25 07:51:37;;;;;;;5.40;4.10;;;20.10;99.90;;;;;;6056290;23;20210;-77
2021/09/25 07:54:06;;;;;;;4.35;3.95;;;20.30;99.90;;;;;;6057950;23;20210;-77
2021/09/25 07:56:33;;;;;;;4.38;3.97;;;20.30;99.90;;;;;;6055229;23;20292;-78
2021/09/25 07:59:01;;;;;;;4.95;4.30;;;20.40;99.90;;;;;;6057703;23;20210;-77
2021/09/25 08:01:28;;;;;;;3.72;3.42;;;20.50;99.90;;;;;;6055219;23;20206;-77
2021/09/25 08:03:56;;;;;;;4.00;3.60;;;20.50;99.90;;;;;;6057196;23;20277;-77
2021/09/25 08:06:23;;;;;;;3.65;3.35;;;20.40;99.90;;;;;;6056228;23;20214;-77
2021/09/25 08:08:50;;;;;;;3.30;3.00;;;20.70;99.90;;;;;;6056740;23;20206;-77
2021/09/25 08:11:17;;;;;;;5.47;4.07;;;21.00;99.90;;;;;;6056043;23;20269;-77
2021/09/25 08:13:44;;;;;;;5.47;3.60;;;21.10;99.90;;;;;;6057383;23;20258;-77
2021/09/25 08:16:13;;;;;;;4.40;3.63;;;21.20;99.90;;;;;;6056471;23;20202;-77
2021/09/25 08:18:40;;;;;;;3.30;3.00;;;21.30;99.90;;;;;;6055996;23;20465;-77
2021/09/25 08:21:07;;;;;;;3.25;2.95;;;21.40;99.90;;;;;;6056674;23;20277;-78
2021/09/25 08:23:34;;;;;;;3.50;3.20;;;21.50;99.90;;;;;;6056352;23;20210;-78
2021/09/25 08:26:02;;;;;;;3.80;3.30;;;21.80;99.90;;;;;;6056859;23;20210;-77
2021/09/25 08:28:29;;;;;;;3.30;3.10;;;22.00;99.90;;;;;;6056498;23;20266;-77
2021/09/25 08:30:56;;;;;;;5.53;3.13;;;22.10;99.90;;;;;;6056605;23;20206;-77
2021/09/25 08:33:26;;;;;;;3.33;2.72;;;22.10;99.90;;;;;;6056759;23;20332;-77
2021/09/25 08:35:53;;;;;;;3.63;3.33;;;22.20;99.90;;;;;;6057457;23;20214;-77
2021/09/25 08:38:20;;;;;;;3.67;3.38;;;22.10;99.90;;;;;;6056680;23;20213;-77
2021/09/25 08:40:47;;;;;;;3.45;3.15;;;22.20;99.90;;;;;;6055413;23;20563;-77
2021/09/25 08:43:14;;;;;;;3.22;3.03;;;22.20;99.90;;;;;;6057864;23;20202;-78
2021/09/25 08:45:42;;;;;;;3.53;2.90;;;22.20;99.90;;;;;;6056771;23;20324;-77
2021/09/25 08:48:09;;;;;;;4.30;2.95;;;22.20;99.90;;;;;;6056283;23;20206;-78
2021/09/25 08:50:38;;;;;;;3.47;3.17;;;22.60;99.90;;;;;;6056332;23;20277;-75
2021/09/25 08:53:05;;;;;;;3.15;2.85;;;22.80;99.90;;;;;;6056156;23;20507;-75
2021/09/25 08:55:32;;;;;;;3.38;3.08;;;22.90;99.90;;;;;;6055893;23;20214;-75
2021/09/25 08:57:59;;;;;;;3.63;3.20;;;22.90;99.90;;;;;;6055569;23;20212;-75
2021/09/25 09:00:35;;;;;;;3.50;3.20;;;22.90;99.90;;;;;;6055847;23;20700;-76
2021/09/25 09:03:25;;;;;;;3.83;3.20;;;22.80;99.90;;;;;;6055748;23;20643;-75
2021/09/25 09:05:55;;;;;;;3.60;3.03;;;22.90;99.90;;;;;;6056218;23;20263;-75
2021/09/25 09:08:24;;;;;;;4.28;3.33;;;22.90;99.90;;;;;;6055842;23;20261;-75
2021/09/25 09:10:51;;;;;;;3.50;3.20;;;22.90;99.90;;;;;;6055418;23;20257;-76
2021/09/25 09:13:18;;;;;;;3.22;2.97;;;23.00;99.90;;;;;;6056406;23;20206;-76
2021/09/25 09:15:51;;;;;;;3.65;3.20;;;23.00;99.90;;;;;;6056192;23;20206;-76
2021/09/25 09:18:20;;;;;;;3.40;3.10;;;23.00;99.90;;;;;;6055617;23;20210;-76
2021/09/25 09:21:05;;;;;;;4.10;3.38;;;23.00;99.90;;;;;;6055753;23;20214;-76
2021/09/25 09:23:33;;;;;;;3.50;3.20;;;23.20;99.90;;;;;;6057331;23;20499;-77
2021/09/25 09:26:00;;;;;;;3.47;3.17;;;23.00;99.90;;;;;;6056624;23;20210;-76
2021/09/25 09:28:29;;;;;;;3.28;2.97;;;23.00;99.90;;;;;;6056939;23;20229;-76
2021/09/25 09:31:00;;;;;;;3.50;3.20;;;22.90;99.90;;;;;;6055217;23;20238;-76
2021/09/25 09:33:36;;;;;;;3.88;3.03;;;23.10;99.90;;;;;;6056629;23;20597;-76
2021/09/25 09:36:31;;;;;;;4.03;3.40;;;23.40;99.90;;;;;;6055491;23;20759;-76
2021/09/25 09:39:08;;;;;;;3.78;3.47;;;23.40;99.90;;;;;;6057075;23;20742;-76
2021/09/25 09:41:38;;;;;;;3.80;3.47;;;23.30;99.90;;;;;;6054796;23;20285;-76
2021/09/25 09:44:07;;;;;;;3.40;3.10;;;23.50;99.90;;;;;;6056431;23;20210;-76
2021/09/25 09:46:38;;;;;;;4.75;3.70;;;23.80;99.90;;;;;;6054274;23;20218;-76
2021/09/25 09:49:06;;;;;;;3.70;3.40;;;24.00;99.90;;;;;;6056043;23;20718;-76
2021/09/25 09:51:45;;;;;;;4.22;3.45;;;23.60;99.90;;;;;;6055584;23;20210;-76
2021/09/25 09:54:18;;;;;;;4.50;3.33;;;23.20;99.90;;;;;;6056491;23;20257;-75
2021/09/25 09:56:45;;;;;;;3.70;3.40;;;23.00;99.90;;;;;;6054387;23;20206;-76
2021/09/25 09:59:14;;;;;;;3.38;3.08;;;23.10;99.90;;;;;;6056725;23;20269;-76
2021/09/25 10:01:42;;;;;;;3.60;3.22;;;23.20;99.90;;;;;;6053951;23;20214;-76
2021/09/25 10:04:10;;;;;;;3.30;3.00;;;23.30;99.90;;;;;;6055155;23;20210;-76
2021/09/25 10:06:38;;;;;;;5.53;3.67;;;23.60;99.90;;;;;;6054668;23;20264;-75
2021/09/25 10:09:08;;;;;;;3.15;2.95;;;23.80;99.90;;;;;;6055418;23;20860;-76
2021/09/25 10:11:37;;;;;;;4.13;3.78;;;24.00;99.90;;;;;;6055386;23;20786;-75
2021/09/25 10:14:05;;;;;;;3.75;3.40;;;24.00;99.90;;;;;;6054589;23;20248;-76
2021/09/25 10:16:33;;;;;;;3.88;3.50;;;24.20;99.90;;;;;;6052480;23;20213;-75
2021/09/25 10:19:02;;;;;;;3.88;3.38;;;24.30;99.90;;;;;;6054811;23;20206;-76
2021/09/25 10:21:31;;;;;;;3.40;3.20;;;24.20;99.90;;;;;;6054705;23;20266;-75
2021/09/25 10:24:01;;;;;;;4.60;3.50;;;24.10;99.90;;;;;;6056772;23;20220;-75
2021/09/25 10:26:30;;;;;;;4.65;3.67;;;24.20;99.90;;;;;;6055532;23;20639;-75
2021/09/25 10:29:00;;;;;;;3.95;3.30;;;24.10;99.90;;;;;;6056157;23;20652;-76
2021/09/25 10:31:27;;;;;;;9.45;3.42;;;23.90;99.90;;;;;;6055863;23;20257;-76
2021/09/25 10:34:13;;;;;;;4.47;4.07;;;23.90;99.90;;;;;;6056656;23;20205;-75
2021/09/25 10:36:47;;;;;;;4.95;4.07;;;24.00;99.90;;;;;;6053663;23;20210;-75
2021/09/25 10:39:23;;;;;;;4.15;3.75;;;23.70;99.90;;;;;;6056565;23;20210;-75
2021/09/25 10:41:59;;;;;;;4.25;3.55;;;23.40;99.90;;;;;;6054915;23;20240;-76
2021/09/25 10:44:28;;;;;;;4.32;3.92;;;23.30;99.90;;;;;;6055339;23;20209;-75
2021/09/25 10:47:08;;;;;;;4.30;3.90;;;23.40;99.90;;;;;;6054786;23;20550;-76
2021/09/25 10:49:57;;;;;;;4.30;4.00;;;23.50;99.90;;;;;;6056256;23;20277;-76
2021/09/25 10:52:42;;;;;;;4.18;3.88;;;23.40;99.90;;;;;;6049817;23;20201;-76
2021/09/25 10:55:27;;;;;;;3.90;3.60;;;23.50;99.90;;;;;;6054462;23;20242;-75
2021/09/25 10:58:16;;;;;;;5.00;4.50;;;23.30;99.90;;;;;;6054821;23;20198;-75
2021/09/25 11:00:54;;;;;;;4.28;3.85;;;23.10;99.90;;;;;;6054352;23;20643;-75
2021/09/25 11:03:59;;;;;;;5.25;4.80;;;23.00;99.90;;;;;;6055267;23;20210;-75
2021/09/25 11:06:43;;;;;;;4.38;4.05;;;23.00;99.90;;;;;;6054923;23;20973;-76
2021/09/25 11:09:17;;;;;;;4.35;4.05;;;23.30;99.90;;;;;;6056350;23;20209;-76
2021/09/25 11:11:51;;;;;;;4.82;4.32;;;23.40;99.90;;;;;;6057254;23;20210;-76
2021/09/25 11:14:25;;;;;;;6.07;5.57;;;23.50;99.90;;;;;;6057073;23;20204;-76
2021/09/25 11:16:55;;;;;;;5.90;5.40;;;23.50;99.90;;;;;;6056151;23;20587;-76
2021/09/25 11:19:30;;;;;;;5.00;4.40;;;23.70;99.90;;;;;;6057746;23;20540;-76
2021/09/25 11:22:00;;;;;;;4.28;3.97;;;23.80;99.90;;;;;;6056760;23;20277;-76
2021/09/25 11:24:30;;;;;;;4.18;3.85;;;23.90;99.90;;;;;;6058068;23;20206;-75
2021/09/25 11:26:57;;;;;;;5.38;4.90;;;23.90;99.90;;;;;;6056778;23;20210;-75
2021/09/25 11:29:26;;;;;;;4.90;4.10;;;24.00;99.90;;;;;;6043733;23;20257;-76
2021/09/25 11:32:04;;;;;;;5.18;4.70;;;24.00;99.90;;;;;;6055743;23;20206;-76
2021/09/25 11:34:32;;;;;;;4.70;4.22;;;23.90;99.90;;;;;;6056506;23;20206;-76
2021/09/25 11:37:02;;;;;;;4.72;4.20;;;24.00;99.90;;;;;;6055245;23;20209;-76
2021/09/25 11:39:39;;;;;;;4.40;4.00;;;24.10;99.90;;;;;;6058398;23;20261;-76
2021/09/25 11:42:14;;;;;;;5.10;4.60;;;24.10;99.90;;;;;;6055833;23;20237;-75
2021/09/25 11:44:44;;;;;;;4.85;4.38;;;24.20;99.90;;;;;;6056757;23;20269;-76
2021/09/25 11:47:12;;;;;;;5.57;4.97;;;24.20;99.90;;;;;;6056262;23;20210;-76
2021/09/25 11:49:39;;;;;;;7.00;6.40;;;24.00;99.90;;;;;;6056898;23;20210;-76
2021/09/25 11:52:07;;;;;;;7.38;6.72;;;23.90;99.90;;;;;;6056060;23;20206;-76
2021/09/25 11:54:35;;;;;;;7.53;6.82;;;23.80;99.90;;;;;;6057440;23;20210;-76
2021/09/25 11:57:02;;;;;;;9.70;8.90;;;23.70;99.90;;;;;;6055537;23;20212;-76
2021/09/25 11:59:29;;;;;;;7.18;6.50;;;23.70;99.90;;;;;;6061230;23;20210;-77
2021/09/25 12:01:57;;;;;;;6.20;5.70;;;23.70;99.90;;;;;;6057269;23;20201;-77
2021/09/25 12:04:39;;;;;;;6.68;5.85;;;23.80;99.90;;;;;;6043694;23;20233;-78
2021/09/25 12:07:06;;;;;;;5.70;5.20;;;24.20;99.90;;;;;;6055940;23;20681;-78
2021/09/25 12:09:40;;;;;;;6.93;6.32;;;24.50;99.90;;;;;;6056677;23;20278;-77
2021/09/25 12:12:07;;;;;;;7.07;6.30;;;24.80;99.90;;;;;;6056468;23;20261;-77
2021/09/25 12:14:42;;;;;;;6.13;5.55;;;24.80;99.90;;;;;;6056243;23;20214;-79
2021/09/25 12:17:14;;;;;;;6.22;5.63;;;24.90;99.90;;;;;;6056593;23;20265;-77
2021/09/25 12:19:43;;;;;;;6.50;5.90;;;24.80;99.90;;;;;;6057102;23;20281;-78
2021/09/25 12:22:19;;;;;;;6.63;5.97;;;25.10;99.90;;;;;;6056818;23;20237;-78
2021/09/25 12:24:47;;;;;;;7.20;6.60;;;25.20;99.90;;;;;;6056930;23;20285;-79
2021/09/25 12:27:26;;;;;;;6.90;5.90;;;25.10;99.90;;;;;;6054993;23;20274;-78
2021/09/25 12:29:53;;;;;;;7.15;6.55;;;25.00;99.90;;;;;;6057043;23;20272;-78
2021/09/25 12:32:22;;;;;;;5.13;4.70;;;24.90;99.90;;;;;;6056123;23;20202;-78
2021/09/25 12:34:50;;;;;;;4.97;4.57;;;24.90;99.90;;;;;;6056201;23;20289;-78
2021/09/25 12:37:17;;;;;;;5.18;4.68;;;25.10;99.90;;;;;;6055812;23;20659;-78
2021/09/25 12:39:47;;;;;;;4.80;4.40;;;25.20;99.90;;;;;;6057765;23;20217;-78
2021/09/25 12:42:24;;;;;;;5.43;4.80;;;25.20;99.90;;;;;;6056618;23;20217;-78
2021/09/25 12:44:54;;;;;;;5.82;4.32;;;25.20;99.90;;;;;;6057868;23;20206;-78
2021/09/25 12:47:32;;;;;;;4.75;4.35;;;25.10;99.90;;;;;;6056992;23;20787;-78
2021/09/25 12:50:20;;;;;;;5.70;5.20;;;25.10;99.90;;;;;;6058008;23;20435;-78
2021/09/25 12:52:54;;;;;;;6.47;5.95;;;25.10;99.90;;;;;;6055442;23;20588;-78
2021/09/25 12:55:22;;;;;;;6.22;5.63;;;24.90;99.90;;;;;;6056077;23;20749;-78
2021/09/25 12:57:57;;;;;;;6.70;5.15;;;24.80;99.90;;;;;;6054987;23;20214;-78